Time;durP1;ratioP1;P1;durP2;ratioP2;P2;SDS_P1;SDS_P2;PMS_P1;PMS_P2;Temp;Humidity;BMP_temperature;BMP_pressure;BME280_temperature;BME280_humidity;BME280_pressure;Samples;Min_cycle;Max_cycle;Signal;HPM_P1;HPM_P2
2021/10/15 00:00:59;;;;;;;11.25;9.40;;;;;;;13.55;87.91;100449.83;2773433;86;21028;-66
2021/10/15 00:05:01;;;;;;;10.93;7.65;;;;;;;13.55;88.09;100454.66;2773805;86;21131;-66
2021/10/15 00:09:03;;;;;;;9.50;7.72;;;;;;;13.59;87.80;100449.06;2773635;86;21047;-66
2021/10/15 00:13:04;;;;;;;8.30;7.42;;;;;;;13.64;87.72;100442.80;2773125;86;21037;-66
2021/10/15 00:17:06;;;;;;;9.33;8.38;;;;;;;13.61;87.46;100441.74;2770131;86;21025;-67
2021/10/15 00:21:08;;;;;;;11.63;9.33;;;;;;;13.62;87.88;100439.42;2766724;86;21084;-66
2021/10/15 00:25:10;;;;;;;9.00;8.20;;;;;;;13.62;87.50;100435.41;2766277;86;21692;-66
2021/10/15 00:29:12;;;;;;;9.23;6.75;;;;;;;13.62;87.75;100429.55;2766116;84;21068;-66
2021/10/15 00:33:13;;;;;;;10.95;8.30;;;;;;;13.60;87.65;100426.70;2766438;86;21053;-67
2021/10/15 00:37:18;;;;;;;11.65;7.67;;;;;;;13.64;87.83;100420.08;2766384;86;21507;-66
2021/10/15 00:41:18;;;;;;;12.13;9.43;;;;;;;13.64;87.71;100420.08;2760802;85;21538;-66
2021/10/15 00:45:20;;;;;;;11.78;10.38;;;;;;;13.67;87.77;100419.78;2749419;86;20987;-66
2021/10/15 00:49:21;;;;;;;9.68;8.15;;;;;;;13.68;87.47;100417.45;2750388;86;21084;-66
2021/10/15 00:53:23;;;;;;;11.93;8.70;;;;;;;13.67;87.59;100421.12;2749656;86;21014;-66
2021/10/15 00:57:24;;;;;;;11.78;10.13;;;;;;;13.67;87.47;100407.75;2750063;86;21005;-66
2021/10/15 01:01:26;;;;;;;9.70;8.65;;;;;;;13.68;87.33;100413.45;2699645;88;20997;-66
2021/10/15 01:05:28;;;;;;;13.38;10.05;;;;;;;13.69;87.35;100404.44;2655000;89;21083;-66
2021/10/15 01:09:31;;;;;;;13.25;9.30;;;;;;;13.68;87.35;100405.43;2656727;89;21064;-66
2021/10/15 01:13:34;;;;;;;10.90;8.40;;;;;;;13.66;87.26;100389.55;2758400;86;21033;-66
2021/10/15 01:17:36;;;;;;;10.82;8.70;;;;;;;13.66;87.21;100394.90;2754998;86;21013;-66
2021/10/15 01:21:38;;;;;;;12.95;9.98;;;;;;;13.67;87.27;100387.70;2750008;86;21101;-66
2021/10/15 01:25:40;;;;;;;10.03;9.03;;;;;;;13.69;87.22;100387.06;2749977;86;21025;-66
2021/10/15 01:29:41;;;;;;;11.35;8.13;;;;;;;13.69;87.19;100388.41;2759118;86;21076;-67
2021/10/15 01:33:43;;;;;;;14.75;11.10;;;;;;;13.69;87.20;100387.92;2760297;86;21061;-66
2021/10/15 01:37:45;;;;;;;9.68;8.43;;;;;;;13.70;87.34;100383.41;2761949;86;21588;-66
2021/10/15 01:41:46;;;;;;;10.82;9.18;;;;;;;13.73;87.16;100384.45;2762070;86;21073;-67
2021/10/15 01:45:48;;;;;;;15.88;10.82;;;;;;;13.72;87.11;100386.77;2761921;86;21051;-66
2021/10/15 01:49:50;;;;;;;11.43;9.00;;;;;;;13.75;87.19;100382.47;2762012;86;21085;-66
2021/10/15 01:53:51;;;;;;;14.95;10.53;;;;;;;13.70;86.84;100369.56;2761824;86;21060;-66
2021/10/15 01:57:53;;;;;;;14.13;11.18;;;;;;;13.71;86.85;100377.07;2762039;86;21044;-66
2021/10/15 02:01:55;;;;;;;12.50;11.10;;;;;;;13.72;86.91;100370.73;2761515;86;21105;-66
2021/10/15 02:05:58;;;;;;;13.18;10.68;;;;;;;13.72;86.70;100377.42;2766485;86;21052;-67
2021/10/15 02:10:05;;;;;;;13.10;11.20;;;;;;;13.75;86.66;100366.94;2766027;86;21506;-66
2021/10/15 02:14:07;;;;;;;16.07;11.80;;;;;;;13.70;86.44;100375.38;2765014;86;21042;-66
2021/10/15 02:18:09;;;;;;;14.18;10.85;;;;;;;13.67;86.36;100373.01;2766543;86;21022;-66
2021/10/15 02:22:11;;;;;;;11.28;9.70;;;;;;;13.66;86.69;100364.64;2766803;86;21054;-66
2021/10/15 02:26:19;;;;;;;11.40;10.23;;;;;;;13.68;86.65;100366.67;2766541;86;20991;-66
2021/10/15 02:30:18;;;;;;;13.85;10.40;;;;;;;13.67;86.95;100359.64;2751310;84;21043;-66
2021/10/15 02:34:20;;;;;;;12.40;10.60;;;;;;;13.68;86.61;100358.17;2749436;86;21077;-67
2021/10/15 02:38:25;;;;;;;15.13;12.88;;;;;;;13.72;86.45;100349.34;2700221;88;21056;-66
2021/10/15 02:42:26;;;;;;;15.20;10.80;;;;;;;13.74;86.40;100351.38;2655248;89;21005;-66
2021/10/15 02:46:28;;;;;;;12.30;11.00;;;;;;;13.74;86.16;100346.03;2655061;89;21028;-66
2021/10/15 02:50:30;;;;;;;13.45;11.63;;;;;;;13.72;86.20;100344.00;2655274;89;21079;-66
2021/10/15 02:54:32;;;;;;;13.20;10.72;;;;;;;13.75;86.25;100342.37;2654777;89;21056;-67
2021/10/15 02:58:34;;;;;;;15.60;12.40;;;;;;;13.71;85.98;100346.33;2658627;89;21060;-66
2021/10/15 03:02:36;;;;;;;14.23;12.45;;;;;;;13.67;86.33;100344.94;2658943;89;21060;-66
2021/10/15 03:06:38;;;;;;;14.70;13.00;;;;;;;13.69;86.29;100338.47;2660478;88;21071;-66
2021/10/15 03:10:40;;;;;;;12.05;10.15;;;;;;;13.71;86.07;100333.82;2757320;86;21014;-67
2021/10/15 03:14:43;;;;;;;12.15;10.90;;;;;;;13.69;85.98;100330.45;2750782;84;21074;-64
2021/10/15 03:18:45;;;;;;;14.23;11.48;;;;;;;13.69;85.99;100329.59;2749711;86;21058;-66
2021/10/15 03:22:46;;;;;;;11.15;9.40;;;;;;;13.74;86.00;100326.50;2750504;85;21022;-69
2021/10/15 03:26:48;;;;;;;10.45;9.15;;;;;;;13.73;85.43;100325.64;2750492;86;21066;-69
2021/10/15 03:30:50;;;;;;;14.40;11.55;;;;;;;13.70;85.81;100323.27;2750810;85;21552;-69
2021/10/15 03:34:52;;;;;;;11.35;10.05;;;;;;;13.69;85.68;100328.27;2750569;85;21058;-69
2021/10/15 03:38:53;;;;;;;9.43;8.18;;;;;;;13.68;85.46;100323.91;2750641;86;21074;-69
2021/10/15 03:42:55;;;;;;;9.23;7.90;;;;;;;13.57;85.66;100323.58;2766193;86;21050;-69
2021/10/15 03:46:56;;;;;;;8.90;7.05;;;;;;;13.48;85.60;100321.79;2750178;86;21031;-69
2021/10/15 03:50:58;;;;;;;6.42;5.47;;;;;;;13.43;85.58;100316.88;2765567;86;21038;-70
2021/10/15 03:55:00;;;;;;;8.50;7.62;;;;;;;13.32;85.14;100318.32;2750687;86;20987;-69
2021/10/15 03:59:01;;;;;;;10.60;7.72;;;;;;;13.24;85.11;100310.54;2766371;86;21045;-70
2021/10/15 04:03:03;;;;;;;8.35;6.87;;;;;;;13.13;84.83;100303.53;2749815;86;21451;-70
2021/10/15 04:07:05;;;;;;;7.87;5.85;;;;;;;13.00;84.86;100302.48;2750278;86;21061;-70
2021/10/15 04:11:06;;;;;;;6.75;6.05;;;;;;;12.91;84.82;100299.31;2750045;86;21014;-70
2021/10/15 04:15:10;;;;;;;9.00;7.70;;;;;;;12.79;85.13;100295.11;2747878;86;21084;-70
2021/10/15 04:19:12;;;;;;;10.28;8.25;;;;;;;12.73;85.18;100300.99;2749736;86;20998;-70
2021/10/15 04:23:14;;;;;;;7.50;6.60;;;;;;;12.68;85.61;100296.09;2749802;86;21088;-70
2021/10/15 04:27:15;;;;;;;9.18;7.47;;;;;;;12.64;85.65;100299.52;2750343;86;21061;-70
2021/10/15 04:31:17;;;;;;;16.00;10.45;;;;;;;12.66;85.62;100300.70;2755023;84;21111;-70
2021/10/15 04:35:19;;;;;;;10.93;8.63;;;;;;;12.68;85.70;100296.92;2775169;86;21070;-70
2021/10/15 04:39:23;;;;;;;11.25;7.35;;;;;;;12.68;85.76;100289.42;2759141;85;21062;-70
2021/10/15 04:43:24;;;;;;;14.20;8.85;;;;;;;12.67;85.96;100281.03;2752205;84;21049;-70
2021/10/15 04:47:26;;;;;;;12.35;9.40;;;;;;;12.69;85.59;100271.91;2748729;86;21038;-70
2021/10/15 04:51:28;;;;;;;10.90;7.60;;;;;;;12.66;85.50;100267.34;2750167;84;21330;-70
2021/10/15 04:55:30;;;;;;;15.50;12.40;;;;;;;12.66;85.68;100266.86;2754530;86;21049;-70
2021/10/15 04:59:31;;;;;;;11.97;9.73;;;;;;;12.65;85.62;100254.51;2754336;84;21041;-69
2021/10/15 05:03:33;;;;;;;13.05;9.05;;;;;;;12.61;85.54;100253.11;2754610;86;21057;-70
2021/10/15 05:07:36;;;;;;;11.95;9.35;;;;;;;12.58;85.61;100249.39;2755010;84;21101;-70
2021/10/15 05:11:45;;;;;;;10.08;8.30;;;;;;;12.56;85.69;100244.66;2775623;86;21053;-70
2021/10/15 05:15:47;;;;;;;13.62;8.78;;;;;;;12.52;85.76;100237.44;2775105;86;20993;-70
2021/10/15 05:19:49;;;;;;;12.78;9.40;;;;;;;12.55;85.71;100237.63;2775582;86;21064;-70
2021/10/15 05:23:51;;;;;;;11.60;10.28;;;;;;;12.59;85.71;100237.73;2774063;86;21052;-70
2021/10/15 05:27:52;;;;;;;11.93;9.20;;;;;;;12.60;85.35;100232.75;2769266;86;21041;-70
2021/10/15 05:31:54;;;;;;;9.20;7.70;;;;;;;12.58;85.41;100229.38;2719828;87;21062;-70
2021/10/15 05:35:55;;;;;;;12.37;9.40;;;;;;;12.57;85.44;100233.00;2658918;89;21072;-69
2021/10/15 05:39:57;;;;;;;11.70;9.50;;;;;;;12.61;85.31;100229.09;2658989;89;21043;-69
2021/10/15 05:43:59;;;;;;;10.63;8.65;;;;;;;12.63;85.20;100232.45;2658866;89;21071;-69
2021/10/15 05:48:01;;;;;;;10.60;9.10;;;;;;;12.63;85.02;100217.78;2658844;89;21079;-69
2021/10/15 05:52:19;;;;;;;16.20;10.98;;;;;;;12.65;84.88;100225.15;2659143;89;21091;-69
2021/10/15 05:56:36;;;;;;;12.88;10.63;;;;;;;12.68;84.82;100231.53;2658538;89;21076;-69
2021/10/15 06:00:28;;;;;;;12.33;9.50;;;;;;;12.67;84.45;100235.19;2656209;89;21056;-69
2021/10/15 06:17:08;;;;;;;13.85;10.48;;;;;;;12.70;84.16;100230.08;2758241;86;21068;-69
2021/10/15 06:21:09;;;;;;;15.30;10.45;;;;;;;12.73;84.15;100228.93;2758218;86;21092;-70
2021/10/15 06:25:11;;;;;;;12.55;9.45;;;;;;;12.76;83.56;100226.83;2749252;85;21092;-70
2021/10/15 06:29:13;;;;;;;12.65;9.58;;;;;;;12.78;83.72;100220.03;2759733;85;21108;-69
2021/10/15 06:33:15;;;;;;;12.98;9.18;;;;;;;12.78;83.15;100217.36;2778895;85;21016;-69
2021/10/15 06:37:17;;;;;;;9.13;7.03;;;;;;;12.79;83.39;100209.70;2775243;85;21056;-69
2021/10/15 06:41:19;;;;;;;15.70;9.58;;;;;;;12.81;83.23;100208.55;2775281;86;21051;-70
2021/10/15 06:45:21;;;;;;;9.48;7.92;;;;;;;12.88;83.12;100202.16;2757378;84;21021;-69
2021/10/15 06:49:22;;;;;;;10.38;9.10;;;;;;;12.93;82.74;100201.73;2754270;86;21142;-69
2021/10/15 06:53:24;;;;;;;10.53;8.68;;;;;;;12.94;82.60;100194.08;2754562;86;21041;-69
2021/10/15 06:57:25;;;;;;;10.48;7.72;;;;;;;12.97;82.66;100194.64;2754867;86;21048;-70
2021/10/15 07:01:27;;;;;;;13.03;8.55;;;;;;;13.05;82.51;100201.91;2754406;86;21052;-69
2021/10/15 07:05:29;;;;;;;10.43;8.25;;;;;;;13.11;82.01;100200.48;2753995;86;21038;-69
2021/10/15 07:09:30;;;;;;;9.00;8.10;;;;;;;13.16;82.42;100192.87;2754640;86;21084;-69
2021/10/15 07:13:32;;;;;;;11.80;9.40;;;;;;;13.25;81.95;100188.02;2755153;86;21080;-70
2021/10/15 07:17:33;;;;;;;10.00;8.55;;;;;;;13.32;82.04;100187.42;2755159;86;21037;-70
2021/10/15 07:21:36;;;;;;;9.40;8.48;;;;;;;13.41;82.04;100186.56;2754916;86;21044;-69
2021/10/15 07:25:38;;;;;;;11.50;8.80;;;;;;;13.49;81.10;100186.69;2754977;86;21048;-69
2021/10/15 07:29:39;;;;;;;10.88;8.78;;;;;;;13.56;80.66;100188.28;2733425;86;21038;-69
2021/10/15 07:33:41;;;;;;;11.43;6.22;;;;;;;13.63;80.90;100182.67;2711963;88;21063;-69
2021/10/15 07:37:43;;;;;;;8.38;7.17;;;;;;;13.69;80.37;100182.58;2655253;89;20997;-69
2021/10/15 07:41:45;;;;;;;10.35;8.18;;;;;;;13.75;80.36;100187.84;2654589;89;21667;-69
2021/10/15 07:45:47;;;;;;;10.70;8.40;;;;;;;13.82;80.04;100180.41;2656527;89;21079;-69
2021/10/15 07:49:49;;;;;;;12.73;8.05;;;;;;;13.94;79.72;100185.53;2756785;86;21030;-70
2021/10/15 07:53:50;;;;;;;7.90;7.05;;;;;;;14.01;80.20;100182.63;2756849;86;21027;-70
2021/10/15 07:57:52;;;;;;;10.05;8.98;;;;;;;14.07;79.69;100183.34;2757202;86;21095;-70
2021/10/15 08:01:54;;;;;;;13.15;8.03;;;;;;;14.14;79.16;100180.91;2749931;86;21002;-69
2021/10/15 08:05:56;;;;;;;8.40;7.55;;;;;;;14.21;78.92;100172.61;2738765;87;21109;-70
2021/10/15 08:09:57;;;;;;;10.93;5.85;;;;;;;14.29;78.62;100177.20;2738591;87;21088;-70
2021/10/15 08:13:59;;;;;;;9.05;6.87;;;;;;;14.33;77.46;100171.05;2737136;85;21120;-69
2021/10/15 08:18:01;;;;;;;8.38;6.17;;;;;;;14.45;77.85;100179.69;2738890;87;21062;-70
2021/10/15 08:22:03;;;;;;;8.48;6.17;;;;;;;14.61;78.17;100174.96;2738759;87;21049;-70
2021/10/15 08:26:05;;;;;;;9.28;6.97;;;;;;;14.77;78.06;100172.45;2738929;87;21064;-70
2021/10/15 08:30:08;;;;;;;8.10;7.30;;;;;;;14.97;77.69;100168.23;2730265;86;21080;-69
2021/10/15 08:34:10;;;;;;;9.10;7.42;;;;;;;15.15;76.68;100161.49;2719785;84;21030;-70
2021/10/15 08:38:13;;;;;;;9.28;6.67;;;;;;;15.27;75.80;100152.16;2720321;87;21052;-70
2021/10/15 08:42:15;;;;;;;10.18;7.42;;;;;;;15.35;75.94;100149.20;2720095;86;21073;-69
2021/10/15 08:46:17;;;;;;;12.60;8.95;;;;;;;15.38;75.63;100145.67;2719085;84;21010;-70
2021/10/15 08:50:20;;;;;;;10.45;8.15;;;;;;;15.35;75.79;100143.84;2720571;86;21389;-70
2021/10/15 08:54:21;;;;;;;8.75;7.22;;;;;;;15.26;75.47;100142.95;2720330;84;21069;-70
2021/10/15 08:58:39;;;;;;;9.63;7.75;;;;;;;15.21;75.63;100147.45;2720549;86;21061;-70
2021/10/15 09:02:41;;;;;;;9.65;6.97;;;;;;;15.32;76.29;100142.30;2718307;87;21077;-70
2021/10/15 09:06:43;;;;;;;12.13;7.78;;;;;;;15.46;75.14;100142.70;2719859;86;21073;-70
2021/10/15 09:10:45;;;;;;;10.25;6.90;;;;;;;15.54;75.11;100134.20;2720093;86;21077;-70
2021/10/15 09:14:47;;;;;;;11.95;8.73;;;;;;;15.56;74.36;100123.30;2720213;87;21101;-70
2021/10/15 09:18:49;;;;;;;9.23;7.92;;;;;;;15.64;75.32;100121.14;2720443;86;21116;-70
2021/10/15 09:22:51;;;;;;;8.98;7.03;;;;;;;15.73;75.15;100118.84;2720979;87;21040;-70
2021/10/15 09:26:52;;;;;;;9.65;6.65;;;;;;;15.84;75.46;100119.03;2722567;84;21049;-70
2021/10/15 09:30:54;;;;;;;7.42;5.90;;;;;;;15.92;75.45;100116.91;2771362;86;21084;-70
2021/10/15 09:34:56;;;;;;;8.15;6.42;;;;;;;15.97;74.85;100110.02;2774782;86;21052;-70
2021/10/15 09:38:58;;;;;;;6.33;5.53;;;;;;;16.03;74.18;100103.16;2774263;86;21107;-69
2021/10/15 09:43:04;;;;;;;6.72;5.83;;;;;;;16.12;74.36;100100.83;2745164;86;21375;-70
2021/10/15 09:47:16;;;;;;;6.40;5.28;;;;;;;16.21;74.72;100098.14;2775371;86;21056;-70
2021/10/15 09:51:21;;;;;;;6.35;4.92;;;;;;;16.21;74.45;100098.14;2774132;84;21103;-70
2021/10/15 09:55:31;;;;;;;5.70;4.30;;;;;;;16.19;73.87;100094.78;2775035;86;21075;-70
2021/10/15 09:59:42;;;;;;;7.08;5.35;;;;;;;16.20;74.02;100095.13;2754601;84;21057;-70
2021/10/15 10:03:46;;;;;;;6.45;4.33;;;;;;;16.23;73.65;100085.39;2754126;84;21080;-69
2021/10/15 10:07:51;;;;;;;5.65;4.37;;;;;;;16.30;73.24;100090.41;2754449;86;21040;-69
2021/10/15 10:11:53;;;;;;;7.33;4.28;;;;;;;16.34;73.99;100084.20;2754265;86;21072;-70
2021/10/15 10:15:55;;;;;;;6.17;5.60;;;;;;;16.61;73.83;100081.66;2754212;85;21080;-70
2021/10/15 10:20:02;;;;;;;8.28;6.03;;;;;;;16.93;73.03;100077.23;2754107;85;21108;-70
2021/10/15 10:24:15;;;;;;;5.55;4.97;;;;;;;17.26;71.82;100054.80;2753776;86;21056;-70
2021/10/15 10:28:21;;;;;;;5.78;4.65;;;;;;;17.41;70.52;100048.16;2753311;86;21053;-70
2021/10/15 10:32:24;;;;;;;;;;;;;;;17.61;69.89;100050.39;2757025;84;21077;-70
2021/10/15 10:36:30;;;;;;;7.03;5.30;;;;;;;17.85;70.71;100044.84;2754375;85;20089;-70
2021/10/15 10:40:31;;;;;;;6.90;5.00;;;;;;;18.05;68.97;100038.18;2754371;86;21029;-70
2021/10/15 10:44:49;;;;;;;5.22;4.65;;;;;;;18.16;68.73;100034.22;2753492;86;21112;-70
2021/10/15 10:48:57;;;;;;;9.23;4.90;;;;;;;18.21;69.57;100038.04;2752869;86;21118;-70
2021/10/15 10:53:08;;;;;;;5.33;4.47;;;;;;;18.21;67.94;100037.19;2798916;84;21046;-70
2021/10/15 10:57:21;;;;;;;4.58;4.00;;;;;;;18.11;67.77;100030.72;2786232;84;21137;-70
2021/10/15 11:01:30;;;;;;;5.17;4.70;;;;;;;17.95;68.06;100028.45;2775010;86;21027;-70
2021/10/15 11:05:37;;;;;;;8.40;5.45;;;;;;;17.94;68.46;100015.20;2745451;86;21070;-69
2021/10/15 11:09:50;;;;;;;4.95;4.53;;;;;;;18.16;69.72;100014.03;2775293;86;21125;-69
2021/10/15 11:13:51;;;;;;;9.75;5.87;;;;;;;18.34;68.55;100005.10;2775570;85;21019;-70
2021/10/15 11:17:53;;;;;;;6.92;4.75;;;;;;;18.32;67.87;100000.41;2755319;84;21037;-70
2021/10/15 11:22:02;;;;;;;4.17;3.77;;;;;;;18.27;67.88;100002.30;2754597;86;21065;-69
2021/10/15 11:26:03;;;;;;;6.97;5.12;;;;;;;18.11;68.51;99999.77;2755116;84;21060;-70
2021/10/15 11:30:09;;;;;;;3.52;2.70;;;;;;;18.05;69.89;99993.25;2755030;84;21391;-69
2021/10/15 11:34:11;;;;;;;;;;;;;;;18.05;68.54;100001.84;2765042;86;21061;-70
2021/10/15 11:38:19;;;;;;;0.95;0.85;;;;;;;18.02;65.15;99987.41;2763380;86;20105;-69
2021/10/15 11:42:24;;;;;;;2.37;1.87;;;;;;;17.98;64.29;99981.52;2763458;86;21076;-70
2021/10/15 11:46:30;;;;;;;1.72;1.22;;;;;;;17.95;66.30;99981.36;2762500;86;21014;-70
2021/10/15 11:50:37;;;;;;;3.05;1.27;;;;;;;17.95;65.42;99981.89;2763111;86;21072;-70
2021/10/15 11:54:39;;;;;;;1.90;1.70;;;;;;;17.85;64.06;99985.66;2760921;84;21159;-69
2021/10/15 11:58:55;;;;;;;1.20;1.10;;;;;;;17.94;65.62;99981.03;2762721;84;21025;-69
2021/10/15 12:02:56;;;;;;;;;;;;;;;17.96;64.46;99972.80;2765830;86;21099;-70
2021/10/15 12:06:58;;;;;;;2.00;1.80;;;;;;;17.77;65.73;99976.81;2762280;84;20141;-70
2021/10/15 12:11:00;;;;;;;2.15;1.15;;;;;;;17.63;65.44;99978.44;2762849;86;21076;-70
2021/10/15 12:15:01;;;;;;;2.87;1.50;;;;;;;17.45;65.21;99974.72;2762470;86;21072;-70
2021/10/15 12:19:16;;;;;;;1.70;1.50;;;;;;;17.28;65.81;99973.47;2761835;84;21084;-70
2021/10/15 12:23:17;;;;;;;3.05;2.15;;;;;;;17.11;66.27;99984.31;2762920;84;21601;-70
2021/10/15 12:27:30;;;;;;;2.83;2.40;;;;;;;16.94;66.41;99979.51;2762500;84;21053;-70
2021/10/15 12:31:36;;;;;;;2.58;2.37;;;;;;;16.84;66.54;99973.49;2766753;84;21031;-69
2021/10/15 12:35:38;;;;;;;4.78;3.42;;;;;;;16.72;66.75;99960.95;2763916;84;21103;-70
2021/10/15 12:39:41;;;;;;;3.42;3.15;;;;;;;16.61;66.71;99958.15;2762085;84;21080;-70
2021/10/15 12:43:42;;;;;;;4.92;3.33;;;;;;;16.56;67.95;99958.66;2763083;84;21057;-70
2021/10/15 12:48:08;;;;;;;3.77;2.60;;;;;;;16.53;67.75;99948.79;2762213;84;21029;-70
2021/10/15 12:52:32;;;;;;;3.05;2.75;;;;;;;16.61;67.73;99945.24;2762943;86;21088;-70
2021/10/15 12:56:34;;;;;;;3.22;2.92;;;;;;;16.66;68.38;99933.47;2762593;86;21108;-70
2021/10/15 13:01:01;;;;;;;4.97;3.05;;;;;;;16.72;67.91;99925.23;2763029;86;21076;-70
2021/10/15 13:05:08;;;;;;;1.70;1.60;;;;;;;16.70;67.10;99922.21;2762317;84;21061;-71
2021/10/15 13:09:11;;;;;;;3.02;2.02;;;;;;;16.74;67.91;99913.80;2763002;86;21024;-69
2021/10/15 13:13:13;;;;;;;4.80;3.15;;;;;;;16.84;67.95;99909.87;2757115;84;21382;-65
2021/10/15 13:17:15;;;;;;;2.77;2.00;;;;;;;16.93;67.29;99909.33;2750862;84;21401;-67
2021/10/15 13:21:17;;;;;;;2.50;2.30;;;;;;;17.04;67.60;99912.15;2752039;86;21092;-67
2021/10/15 13:25:19;;;;;;;2.45;2.15;;;;;;;17.09;67.63;99902.19;2751871;86;21452;-68
2021/10/15 13:29:21;;;;;;;3.42;3.12;;;;;;;17.13;67.89;99892.25;2751831;86;21111;-67
2021/10/15 13:33:24;;;;;;;6.47;2.12;;;;;;;17.18;66.87;99884.16;2743941;84;21038;-67
2021/10/15 13:37:36;;;;;;;2.15;1.95;;;;;;;17.22;67.42;99888.19;2720722;85;21120;-67
2021/10/15 13:45:53;;;;;;;3.42;2.50;;;;;;;17.28;66.48;99891.48;2681299;84;40015;-67
2021/10/15 13:49:53;;;;;;;3.83;2.85;;;;;;;17.27;66.89;99900.05;2745872;84;21066;-66
2021/10/15 13:53:55;;;;;;;2.35;1.92;;;;;;;17.24;67.06;99900.41;2743036;85;21069;-68
2021/10/15 13:57:58;;;;;;;2.20;2.00;;;;;;;17.16;66.09;99899.14;2748745;85;20979;-68
2021/10/15 14:02:06;;;;;;;3.37;2.27;;;;;;;17.08;66.91;99898.69;2749838;85;21099;-67
2021/10/15 14:06:03;;;;;;;2.12;1.32;;;;;;;17.02;67.12;99898.55;2747880;86;21507;-67
2021/10/15 14:10:05;;;;;;;2.95;2.42;;;;;;;16.95;67.11;99894.36;2749750;86;21448;-68
2021/10/15 14:14:08;;;;;;;3.02;2.52;;;;;;;16.92;67.60;99890.69;2737466;84;21486;-67
2021/10/15 14:18:11;;;;;;;6.08;2.00;;;;;;;16.86;67.74;99889.54;2742117;84;21507;-68
2021/10/15 14:22:12;;;;;;;3.33;2.20;;;;;;;16.80;67.73;99887.57;2749884;86;21091;-68
2021/10/15 14:26:14;;;;;;;2.55;2.25;;;;;;;16.75;67.77;99889.44;2748830;86;21087;-68
2021/10/15 14:30:21;;;;;;;2.62;1.70;;;;;;;16.68;67.92;99890.64;2729388;84;21029;-69
2021/10/15 14:34:19;;;;;;;3.02;1.98;;;;;;;16.64;68.31;99894.69;2690280;86;21544;-70
2021/10/15 14:38:21;;;;;;;4.65;2.33;;;;;;;16.63;68.50;99893.02;2720033;85;21090;-70
2021/10/15 14:42:23;;;;;;;4.45;2.70;;;;;;;16.61;68.57;99896.39;2675993;88;21022;-70
2021/10/15 14:46:25;;;;;;;6.08;2.72;;;;;;;16.56;68.83;99896.09;2675720;88;21560;-70
2021/10/15 14:50:26;;;;;;;5.15;2.95;;;;;;;16.51;69.17;99898.47;2675984;88;21443;-70
2021/10/15 14:54:28;;;;;;;5.28;3.00;;;;;;;16.49;69.49;99899.12;2665872;89;21071;-70
2021/10/15 14:58:29;;;;;;;3.70;3.08;;;;;;;16.46;69.41;99908.87;2620693;90;21128;-70
2021/10/15 15:02:33;;;;;;;2.85;2.65;;;;;;;16.42;69.80;99911.91;2664445;89;21556;-69
2021/10/15 15:06:34;;;;;;;5.20;2.95;;;;;;;16.39;69.92;99916.28;2664903;89;21068;-70
2021/10/15 15:10:38;;;;;;;2.45;2.25;;;;;;;16.37;69.97;99917.45;2621205;90;21073;-70
2021/10/15 15:14:39;;;;;;;5.45;2.60;;;;;;;16.30;70.45;99913.27;2621246;90;21494;-70
2021/10/15 15:18:41;;;;;;;2.98;2.65;;;;;;;16.23;70.00;99911.81;2664648;88;21086;-69
2021/10/15 15:22:43;;;;;;;5.17;3.75;;;;;;;16.19;70.26;99918.50;2665395;89;21068;-69
2021/10/15 15:26:46;;;;;;;4.97;3.47;;;;;;;16.11;70.16;99916.70;2620698;90;21128;-69
2021/10/15 15:30:47;;;;;;;3.17;2.52;;;;;;;16.08;69.96;99911.66;2663916;89;21499;-69
2021/10/15 15:34:49;;;;;;;3.42;2.40;;;;;;;16.06;69.90;99923.06;2650250;89;21114;-69
2021/10/15 15:38:51;;;;;;;2.45;2.25;;;;;;;16.00;70.39;99925.09;2649140;89;21087;-70
2021/10/15 15:42:53;;;;;;;1.85;1.60;;;;;;;15.97;70.46;99935.66;2649684;89;21050;-70
2021/10/15 15:47:00;;;;;;;4.72;2.10;;;;;;;15.93;70.28;99945.05;2650080;89;21078;-70
2021/10/15 15:50:58;;;;;;;2.40;2.02;;;;;;;15.89;70.96;99951.77;2605274;91;21072;-69
2021/10/15 15:55:00;;;;;;;2.72;1.98;;;;;;;15.80;71.19;99954.07;2650639;89;21066;-69
2021/10/15 15:59:02;;;;;;;4.28;2.30;;;;;;;15.72;71.60;99958.93;2649977;86;21253;-69
2021/10/15 16:03:07;;;;;;;2.22;1.82;;;;;;;15.70;71.72;99963.14;2649763;89;21024;-70
2021/10/15 16:07:07;;;;;;;4.00;2.62;;;;;;;15.67;71.79;99973.35;2649713;89;21117;-70
2021/10/15 16:11:10;;;;;;;4.20;2.60;;;;;;;15.63;72.49;99972.87;2606433;91;21124;-70
2021/10/15 16:15:11;;;;;;;3.77;3.40;;;;;;;15.60;72.40;99975.86;2607193;91;21116;-69
2021/10/15 16:19:13;;;;;;;5.42;3.02;;;;;;;15.43;74.97;99987.07;2649986;89;21553;-69
2021/10/15 16:23:14;;;;;;;5.15;4.05;;;;;;;15.19;76.88;100010.62;2648879;89;21110;-69
2021/10/15 16:27:17;;;;;;;5.95;3.22;;;;;;;15.02;78.42;100023.13;2650433;89;21097;-69
2021/10/15 16:31:18;;;;;;;3.58;2.83;;;;;;;14.80;80.69;100038.77;2649380;89;21119;-69
2021/10/15 16:35:20;;;;;;;4.70;3.95;;;;;;;14.57;82.55;100052.67;2650869;89;21088;-69
2021/10/15 16:39:22;;;;;;;5.35;3.47;;;;;;;14.38;83.92;100067.92;2649966;89;21022;-70
2021/10/15 16:43:24;;;;;;;3.87;3.47;;;;;;;14.22;84.60;100073.15;2649553;89;21011;-69
2021/10/15 16:47:25;;;;;;;3.02;2.42;;;;;;;14.10;84.97;100060.00;2650400;89;21048;-69
2021/10/15 16:51:27;;;;;;;3.75;2.98;;;;;;;14.06;85.14;100059.98;2649468;89;21062;-69
2021/10/15 16:55:28;;;;;;;3.98;3.12;;;;;;;14.02;85.30;100081.34;2650250;89;21040;-69
2021/10/15 16:59:30;;;;;;;5.75;3.92;;;;;;;13.95;85.89;100080.25;2649466;89;21059;-69
2021/10/15 17:03:32;;;;;;;7.20;3.00;;;;;;;13.91;86.04;100086.91;2650051;89;21549;-69
2021/10/15 17:07:34;;;;;;;7.33;3.60;;;;;;;13.78;86.51;100095.30;2606223;91;21049;-69
2021/10/15 17:11:35;;;;;;;4.75;3.52;;;;;;;13.74;86.95;100085.91;2606464;91;21084;-69
2021/10/15 17:15:37;;;;;;;4.08;2.92;;;;;;;13.70;87.53;100101.41;2607190;91;21085;-69
2021/10/15 17:19:39;;;;;;;7.92;4.45;;;;;;;13.62;89.10;100107.50;2606293;91;21093;-70
2021/10/15 17:23:41;;;;;;;7.85;4.28;;;;;;;13.50;90.94;100123.41;2606496;91;21006;-70
2021/10/15 17:27:46;;;;;;;8.33;5.08;;;;;;;13.36;92.55;100128.70;2649731;89;21035;-69
2021/10/15 17:31:48;;;;;;;3.35;2.75;;;;;;;13.16;95.00;100144.80;2688303;86;21056;-71
2021/10/15 17:35:49;;;;;;;6.58;4.47;;;;;;;12.95;94.25;100145.86;2676518;88;21035;-71
2021/10/15 17:39:51;;;;;;;7.37;4.80;;;;;;;12.78;94.08;100174.66;2685732;88;21059;-71
2021/10/15 17:43:53;;;;;;;3.25;2.72;;;;;;;12.63;93.36;100176.42;2704750;87;21048;-68
2021/10/15 17:47:55;;;;;;;7.75;3.02;;;;;;;12.57;91.80;100192.97;2678989;88;21401;-68
2021/10/15 17:51:56;;;;;;;4.10;2.98;;;;;;;12.48;91.88;100202.70;2703637;86;21078;-68
2021/10/15 17:55:58;;;;;;;5.60;2.75;;;;;;;12.42;92.79;100204.56;2685521;88;21072;-68
2021/10/15 18:00:00;;;;;;;3.15;2.80;;;;;;;12.32;93.40;100201.89;2703730;86;21048;-68
2021/10/15 18:04:02;;;;;;;4.62;3.10;;;;;;;12.19;94.25;100216.84;2644760;87;21028;-68
2021/10/15 18:08:04;;;;;;;3.17;2.65;;;;;;;12.13;94.71;100222.73;2677403;88;21392;-68
2021/10/15 18:12:06;;;;;;;4.05;2.02;;;;;;;12.14;95.16;100227.91;2676758;88;21347;-68
2021/10/15 18:16:09;;;;;;;3.08;2.20;;;;;;;12.12;94.73;100229.05;2677437;88;21585;-68
2021/10/15 18:20:11;;;;;;;3.00;2.65;;;;;;;12.07;94.47;100229.45;2678422;88;21521;-68
2021/10/15 18:24:13;;;;;;;4.28;2.12;;;;;;;11.98;94.72;100236.88;2678959;88;20995;-68
2021/10/15 18:28:15;;;;;;;2.17;1.98;;;;;;;11.96;94.96;100238.84;2678962;86;21422;-68
2021/10/15 18:32:16;;;;;;;2.45;1.52;;;;;;;11.98;94.63;100244.88;2683940;86;21039;-68
2021/10/15 18:36:18;;;;;;;2.83;1.98;;;;;;;11.97;93.93;100242.72;2694755;87;21023;-68
2021/10/15 18:40:21;;;;;;;2.10;1.15;;;;;;;11.91;93.34;100266.41;2693115;87;21499;-67
2021/10/15 18:44:23;;;;;;;2.10;1.45;;;;;;;11.78;91.69;100268.80;2695141;87;21626;-70
2021/10/15 18:48:25;;;;;;;2.80;1.42;;;;;;;11.65;91.88;100280.20;2686523;87;21054;-68
2021/10/15 18:52:26;;;;;;;4.47;2.00;;;;;;;11.57;92.36;100295.51;2696279;87;21028;-68
2021/10/15 18:56:28;;;;;;;2.72;2.00;;;;;;;11.51;92.42;100316.02;2694773;87;21083;-68
2021/10/15 19:00:30;;;;;;;2.20;1.50;;;;;;;11.46;92.73;100317.73;2696840;86;21074;-68
2021/10/15 19:04:31;;;;;;;3.70;2.42;;;;;;;11.40;92.97;100315.61;2743673;86;21035;-67